Portada
METAR-TAF:

METAR-TAF

Aeroports :

Chiang Mai, Tailàndia

latitud: 18-47N, longitud: 098-59E, altitud: 312 m

Observació

L'informe es va fer fa 16 minuts, a les 19:30 UTC
Vent 4 kt del Oest/Sud-Oest, variant entre Sud/Sud-Oest i Oest/Nord-Oest
Temperatura 28°C
Humitat 62%
Pressió 1009 hPa
Visibilitat 10 km o més
sense núvols per sota de 1500 mi sense presència de cumulonimbus.

METAR: VTCC 261930Z 24004KT 200V290 CAVOK 28/20 Q1009 NOSIG

Hora: 02:46 (19:46 UTC)

Pronòstic

L'informe es va fer fa 2 hores i 46 minuts, a les 17:00 UTC
Pronòstic vàlid del 26 a les 18 UTC al 27 a les 24 UTC
Vent 5 kt del Sud/Sud-Oest
Visibilitat 10 km o més
Escasses núvols a una alçada de 3500 ft

TAF: VTCC 261700Z 2618/2724 21005KT 9999 FEW035

Observacions i pronòstics meteorològics de més de 4000 aeroports (METAR i TAF).

Les estacions disponibles són els punts grocs i vermells al mapa.

Posi el ratolí al punt desitjat per veure el nom de l'estació.

Feu clic per veure les observacions i els pronòstics meteorològics.

Per canviar el mapa: feu clic els botons verds amb una creu de color negre per apropar; al botó verd amb un guió per allunyar la imatge; o en les fletxes verdes per a mapes adjacents.


METAR-TAF: